Mc Lain, Mississippi
Current Conditions -  °F | °C
As of 12:53 PM on Sunday 23 Nov 2014 (Local Time) from KHBG Reporting Station
Broken Clouds Broken Clouds  
Wind Chill: 69°   Ceiling: 4000
Heat Index: 69°   Visibility: 10mi
Dew Point: 59°   Wind: 18mph
Humidity: 70%   Direction: 220°SW
Pressure: 29.62"   Gusts: 29mph
Location:  31.0532°N, 88.8084°W
Report Text: KHBG 231853Z AUTO 22016G25KT 10SM FEW023 SCT030 BKN040 21/15 A2962 RMK AO2 PK WND 22028/1804 SLP029 T02060150
Loading
Personal Weather Stations






























Interactive Weather Map New forecast layout! Learn more

10-Day Weather Forecast

Advertisements
Track Severe Weather on mobile